sensor_id;sensor_type;location;lat;lon;timestamp;P1;durP1;ratioP1;P2;durP2;ratioP2
60038;SDS011;45916;52.734;6.544;2024-03-08T00:01:13;34.92;;;25.27;;
60038;SDS011;45916;52.734;6.544;2024-03-08T00:03:39;36.85;;;26.17;;
60038;SDS011;45916;52.734;6.544;2024-03-08T00:06:05;38.53;;;26.20;;
60038;SDS011;45916;52.734;6.544;2024-03-08T00:08:31;34.33;;;24.98;;
60038;SDS011;45916;52.734;6.544;2024-03-08T00:10:57;35.75;;;24.83;;
60038;SDS011;45916;52.734;6.544;2024-03-08T00:13:24;34.97;;;25.23;;
60038;SDS011;45916;52.734;6.544;2024-03-08T00:15:50;37.38;;;25.90;;
60038;SDS011;45916;52.734;6.544;2024-03-08T00:18:16;34.15;;;24.95;;
60038;SDS011;45916;52.734;6.544;2024-03-08T00:20:42;36.10;;;25.52;;
60038;SDS011;45916;52.734;6.544;2024-03-08T00:23:10;36.55;;;25.45;;
60038;SDS011;45916;52.734;6.544;2024-03-08T00:25:36;40.38;;;25.63;;
60038;SDS011;45916;52.734;6.544;2024-03-08T00:30:31;38.83;;;28.05;;
60038;SDS011;45916;52.734;6.544;2024-03-08T00:32:57;37.83;;;25.80;;
60038;SDS011;45916;52.734;6.544;2024-03-08T00:35:23;39.35;;;26.02;;
60038;SDS011;45916;52.734;6.544;2024-03-08T00:37:49;36.10;;;26.25;;
60038;SDS011;45916;52.734;6.544;2024-03-08T00:40:15;37.83;;;26.15;;
60038;SDS011;45916;52.734;6.544;2024-03-08T00:42:41;34.83;;;25.15;;
60038;SDS011;45916;52.734;6.544;2024-03-08T00:45:09;31.85;;;25.02;;
60038;SDS011;45916;52.734;6.544;2024-03-08T00:47:35;37.63;;;26.50;;
60038;SDS011;45916;52.734;6.544;2024-03-08T00:50:01;39.20;;;27.42;;
60038;SDS011;45916;52.734;6.544;2024-03-08T00:52:29;38.83;;;24.70;;
60038;SDS011;45916;52.734;6.544;2024-03-08T00:54:55;37.60;;;26.38;;
60038;SDS011;45916;52.734;6.544;2024-03-08T00:57:22;37.75;;;26.50;;
60038;SDS011;45916;52.734;6.544;2024-03-08T00:59:48;39.72;;;28.27;;
60038;SDS011;45916;52.734;6.544;2024-03-08T01:02:14;39.70;;;27.77;;
60038;SDS011;45916;52.734;6.544;2024-03-08T01:04:42;36.33;;;26.90;;
60038;SDS011;45916;52.734;6.544;2024-03-08T01:07:08;40.22;;;27.02;;
60038;SDS011;45916;52.734;6.544;2024-03-08T01:09:34;39.42;;;28.27;;
60038;SDS011;45916;52.734;6.544;2024-03-08T01:12:00;43.75;;;28.23;;
60038;SDS011;45916;52.734;6.544;2024-03-08T01:14:26;36.92;;;26.65;;
60038;SDS011;45916;52.734;6.544;2024-03-08T01:16:53;38.22;;;27.60;;
60038;SDS011;45916;52.734;6.544;2024-03-08T01:19:20;42.10;;;28.33;;
60038;SDS011;45916;52.734;6.544;2024-03-08T01:21:46;41.85;;;26.67;;
60038;SDS011;45916;52.734;6.544;2024-03-08T01:24:12;38.40;;;28.40;;
60038;SDS011;45916;52.734;6.544;2024-03-08T01:26:38;39.08;;;26.60;;
60038;SDS011;45916;52.734;6.544;2024-03-08T01:29:04;42.53;;;27.38;;
60038;SDS011;45916;52.734;6.544;2024-03-08T01:31:31;42.15;;;28.52;;
60038;SDS011;45916;52.734;6.544;2024-03-08T01:33:57;43.35;;;28.35;;
60038;SDS011;45916;52.734;6.544;2024-03-08T01:36:23;38.70;;;27.30;;
60038;SDS011;45916;52.734;6.544;2024-03-08T01:38:50;36.63;;;26.33;;
60038;SDS011;45916;52.734;6.544;2024-03-08T01:41:16;37.80;;;26.60;;
60038;SDS011;45916;52.734;6.544;2024-03-08T01:43:43;37.65;;;28.13;;
60038;SDS011;45916;52.734;6.544;2024-03-08T01:46:10;43.20;;;28.05;;
60038;SDS011;45916;52.734;6.544;2024-03-08T01:48:37;36.55;;;27.85;;
60038;SDS011;45916;52.734;6.544;2024-03-08T01:51:04;37.38;;;26.65;;
60038;SDS011;45916;52.734;6.544;2024-03-08T01:53:30;40.67;;;27.65;;
60038;SDS011;45916;52.734;6.544;2024-03-08T01:55:57;42.47;;;29.10;;
60038;SDS011;45916;52.734;6.544;2024-03-08T01:58:24;39.00;;;26.60;;
60038;SDS011;45916;52.734;6.544;2024-03-08T02:00:53;39.88;;;27.42;;
60038;SDS011;45916;52.734;6.544;2024-03-08T02:03:20;35.70;;;26.83;;
60038;SDS011;45916;52.734;6.544;2024-03-08T02:05:47;40.28;;;27.95;;
60038;SDS011;45916;52.734;6.544;2024-03-08T02:08:13;39.00;;;26.80;;
60038;SDS011;45916;52.734;6.544;2024-03-08T02:10:46;40.10;;;28.23;;
60038;SDS011;45916;52.734;6.544;2024-03-08T02:13:12;38.78;;;27.60;;
60038;SDS011;45916;52.734;6.544;2024-03-08T02:15:54;38.90;;;26.73;;
60038;SDS011;45916;52.734;6.544;2024-03-08T02:18:21;41.83;;;27.80;;
60038;SDS011;45916;52.734;6.544;2024-03-08T02:20:51;36.42;;;25.33;;
60038;SDS011;45916;52.734;6.544;2024-03-08T02:23:18;38.55;;;27.08;;
60038;SDS011;45916;52.734;6.544;2024-03-08T02:25:44;41.15;;;27.23;;
60038;SDS011;45916;52.734;6.544;2024-03-08T02:28:11;38.60;;;26.35;;
60038;SDS011;45916;52.734;6.544;2024-03-08T02:30:37;36.42;;;26.88;;
60038;SDS011;45916;52.734;6.544;2024-03-08T02:33:04;36.75;;;27.48;;
60038;SDS011;45916;52.734;6.544;2024-03-08T02:35:31;40.10;;;27.65;;
60038;SDS011;45916;52.734;6.544;2024-03-08T02:37:57;41.03;;;27.00;;
60038;SDS011;45916;52.734;6.544;2024-03-08T02:40:23;37.38;;;28.10;;
60038;SDS011;45916;52.734;6.544;2024-03-08T02:42:49;37.92;;;27.15;;
60038;SDS011;45916;52.734;6.544;2024-03-08T02:45:15;42.30;;;27.98;;
60038;SDS011;45916;52.734;6.544;2024-03-08T02:47:41;37.30;;;27.13;;
60038;SDS011;45916;52.734;6.544;2024-03-08T02:50:08;41.28;;;28.83;;
60038;SDS011;45916;52.734;6.544;2024-03-08T02:52:34;42.03;;;28.85;;
60038;SDS011;45916;52.734;6.544;2024-03-08T02:55:03;35.45;;;27.23;;
60038;SDS011;45916;52.734;6.544;2024-03-08T02:57:31;39.13;;;27.92;;
60038;SDS011;45916;52.734;6.544;2024-03-08T02:59:57;37.55;;;27.90;;
60038;SDS011;45916;52.734;6.544;2024-03-08T03:02:25;41.05;;;28.92;;
60038;SDS011;45916;52.734;6.544;2024-03-08T03:04:52;40.35;;;29.40;;
60038;SDS011;45916;52.734;6.544;2024-03-08T03:07:18;37.03;;;26.48;;
60038;SDS011;45916;52.734;6.544;2024-03-08T03:09:44;38.40;;;27.55;;
60038;SDS011;45916;52.734;6.544;2024-03-08T03:12:10;39.13;;;26.40;;
60038;SDS011;45916;52.734;6.544;2024-03-08T03:14:37;41.13;;;27.73;;
60038;SDS011;45916;52.734;6.544;2024-03-08T03:17:06;38.53;;;27.27;;
60038;SDS011;45916;52.734;6.544;2024-03-08T03:19:32;39.33;;;28.60;;
60038;SDS011;45916;52.734;6.544;2024-03-08T03:21:58;38.33;;;28.90;;
60038;SDS011;45916;52.734;6.544;2024-03-08T03:24:24;41.45;;;27.90;;
60038;SDS011;45916;52.734;6.544;2024-03-08T03:26:54;40.83;;;27.73;;
60038;SDS011;45916;52.734;6.544;2024-03-08T03:29:20;38.20;;;26.65;;
60038;SDS011;45916;52.734;6.544;2024-03-08T03:31:46;41.50;;;26.98;;
60038;SDS011;45916;52.734;6.544;2024-03-08T03:34:12;40.22;;;27.50;;
60038;SDS011;45916;52.734;6.544;2024-03-08T03:36:39;42.03;;;28.08;;
60038;SDS011;45916;52.734;6.544;2024-03-08T03:39:08;38.42;;;26.65;;
60038;SDS011;45916;52.734;6.544;2024-03-08T03:41:41;42.60;;;28.42;;
60038;SDS011;45916;52.734;6.544;2024-03-08T03:44:11;39.28;;;28.77;;
60038;SDS011;45916;52.734;6.544;2024-03-08T03:46:37;45.05;;;29.95;;
60038;SDS011;45916;52.734;6.544;2024-03-08T03:49:03;40.47;;;27.27;;
60038;SDS011;45916;52.734;6.544;2024-03-08T03:51:29;40.13;;;30.27;;
60038;SDS011;45916;52.734;6.544;2024-03-08T03:53:55;40.53;;;29.63;;
60038;SDS011;45916;52.734;6.544;2024-03-08T03:56:26;44.45;;;28.65;;
60038;SDS011;45916;52.734;6.544;2024-03-08T03:58:52;40.53;;;29.02;;
60038;SDS011;45916;52.734;6.544;2024-03-08T04:01:18;41.83;;;28.95;;
60038;SDS011;45916;52.734;6.544;2024-03-08T04:03:44;39.05;;;30.02;;
60038;SDS011;45916;52.734;6.544;2024-03-08T04:06:10;40.95;;;28.10;;
60038;SDS011;45916;52.734;6.544;2024-03-08T04:08:36;41.08;;;28.48;;
60038;SDS011;45916;52.734;6.544;2024-03-08T04:11:02;44.28;;;29.27;;
60038;SDS011;45916;52.734;6.544;2024-03-08T04:13:29;39.72;;;28.67;;
60038;SDS011;45916;52.734;6.544;2024-03-08T04:15:55;39.97;;;28.58;;
60038;SDS011;45916;52.734;6.544;2024-03-08T04:18:21;41.25;;;28.77;;
60038;SDS011;45916;52.734;6.544;2024-03-08T04:20:47;41.95;;;30.40;;
60038;SDS011;45916;52.734;6.544;2024-03-08T04:23:13;46.00;;;32.03;;
60038;SDS011;45916;52.734;6.544;2024-03-08T04:25:39;45.55;;;29.98;;
60038;SDS011;45916;52.734;6.544;2024-03-08T04:28:08;45.80;;;28.35;;
60038;SDS011;45916;52.734;6.544;2024-03-08T04:30:37;40.17;;;27.58;;
60038;SDS011;45916;52.734;6.544;2024-03-08T04:33:04;41.87;;;28.87;;
60038;SDS011;45916;52.734;6.544;2024-03-08T04:35:32;40.70;;;30.30;;
60038;SDS011;45916;52.734;6.544;2024-03-08T04:37:58;44.67;;;29.20;;
60038;SDS011;45916;52.734;6.544;2024-03-08T04:40:24;38.85;;;29.30;;
60038;SDS011;45916;52.734;6.544;2024-03-08T04:42:50;46.20;;;29.88;;
60038;SDS011;45916;52.734;6.544;2024-03-08T04:45:17;44.28;;;29.85;;
60038;SDS011;45916;52.734;6.544;2024-03-08T04:47:43;40.47;;;29.08;;
60038;SDS011;45916;52.734;6.544;2024-03-08T04:50:10;42.63;;;29.35;;
60038;SDS011;45916;52.734;6.544;2024-03-08T04:52:36;40.65;;;28.30;;
60038;SDS011;45916;52.734;6.544;2024-03-08T04:55:02;42.60;;;31.13;;
60038;SDS011;45916;52.734;6.544;2024-03-08T04:57:30;42.17;;;30.75;;
60038;SDS011;45916;52.734;6.544;2024-03-08T04:59:57;43.10;;;30.83;;
60038;SDS011;45916;52.734;6.544;2024-03-08T05:02:24;44.90;;;30.75;;
60038;SDS011;45916;52.734;6.544;2024-03-08T05:04:50;46.15;;;30.38;;
60038;SDS011;45916;52.734;6.544;2024-03-08T05:07:17;46.35;;;29.45;;
60038;SDS011;45916;52.734;6.544;2024-03-08T05:09:44;48.38;;;32.08;;
60038;SDS011;45916;52.734;6.544;2024-03-08T05:12:16;47.17;;;28.95;;
60038;SDS011;45916;52.734;6.544;2024-03-08T05:14:42;43.15;;;28.90;;
60038;SDS011;45916;52.734;6.544;2024-03-08T05:17:08;49.08;;;32.65;;
60038;SDS011;45916;52.734;6.544;2024-03-08T05:19:35;43.38;;;31.90;;
60038;SDS011;45916;52.734;6.544;2024-03-08T05:22:01;39.17;;;30.85;;
60038;SDS011;45916;52.734;6.544;2024-03-08T05:24:28;43.83;;;32.22;;
60038;SDS011;45916;52.734;6.544;2024-03-08T05:26:55;41.88;;;31.88;;
60038;SDS011;45916;52.734;6.544;2024-03-08T05:29:21;40.35;;;29.35;;
60038;SDS011;45916;52.734;6.544;2024-03-08T05:31:49;45.42;;;30.27;;
60038;SDS011;45916;52.734;6.544;2024-03-08T05:34:16;45.95;;;32.17;;
60038;SDS011;45916;52.734;6.544;2024-03-08T05:36:42;42.72;;;30.95;;
60038;SDS011;45916;52.734;6.544;2024-03-08T05:39:19;45.85;;;31.17;;
60038;SDS011;45916;52.734;6.544;2024-03-08T05:41:45;50.20;;;31.20;;
60038;SDS011;45916;52.734;6.544;2024-03-08T05:44:12;48.50;;;32.67;;
60038;SDS011;45916;52.734;6.544;2024-03-08T05:46:39;47.00;;;33.33;;
60038;SDS011;45916;52.734;6.544;2024-03-08T05:49:08;52.60;;;31.98;;
60038;SDS011;45916;52.734;6.544;2024-03-08T05:51:36;42.50;;;31.63;;
60038;SDS011;45916;52.734;6.544;2024-03-08T05:54:04;42.58;;;31.15;;
60038;SDS011;45916;52.734;6.544;2024-03-08T05:56:36;47.33;;;33.72;;
60038;SDS011;45916;52.734;6.544;2024-03-08T05:59:03;45.67;;;31.98;;
60038;SDS011;45916;52.734;6.544;2024-03-08T06:01:29;43.58;;;31.67;;
60038;SDS011;45916;52.734;6.544;2024-03-08T06:04:01;44.60;;;30.13;;
60038;SDS011;45916;52.734;6.544;2024-03-08T06:06:27;41.88;;;29.85;;
60038;SDS011;45916;52.734;6.544;2024-03-08T06:08:53;42.60;;;32.30;;
60038;SDS011;45916;52.734;6.544;2024-03-08T06:11:21;42.17;;;30.20;;
60038;SDS011;45916;52.734;6.544;2024-03-08T06:13:48;43.28;;;29.80;;
60038;SDS011;45916;52.734;6.544;2024-03-08T06:16:15;42.47;;;30.38;;
60038;SDS011;45916;52.734;6.544;2024-03-08T06:18:41;44.67;;;31.83;;
60038;SDS011;45916;52.734;6.544;2024-03-08T06:21:07;43.75;;;30.33;;
60038;SDS011;45916;52.734;6.544;2024-03-08T06:23:37;46.33;;;30.38;;
60038;SDS011;45916;52.734;6.544;2024-03-08T06:26:07;45.85;;;30.55;;
60038;SDS011;45916;52.734;6.544;2024-03-08T06:28:33;42.97;;;30.13;;
60038;SDS011;45916;52.734;6.544;2024-03-08T06:31:02;45.60;;;30.42;;
60038;SDS011;45916;52.734;6.544;2024-03-08T06:33:29;44.25;;;30.92;;
60038;SDS011;45916;52.734;6.544;2024-03-08T06:35:57;41.50;;;29.80;;
60038;SDS011;45916;52.734;6.544;2024-03-08T06:38:24;41.28;;;29.27;;
60038;SDS011;45916;52.734;6.544;2024-03-08T06:40:50;45.55;;;30.35;;
60038;SDS011;45916;52.734;6.544;2024-03-08T06:43:17;41.72;;;29.67;;
60038;SDS011;45916;52.734;6.544;2024-03-08T06:45:46;39.22;;;27.38;;
60038;SDS011;45916;52.734;6.544;2024-03-08T06:48:16;38.38;;;27.52;;
60038;SDS011;45916;52.734;6.544;2024-03-08T06:50:43;39.05;;;29.55;;
60038;SDS011;45916;52.734;6.544;2024-03-08T06:53:10;39.75;;;29.35;;
60038;SDS011;45916;52.734;6.544;2024-03-08T06:55:36;34.72;;;26.83;;
60038;SDS011;45916;52.734;6.544;2024-03-08T06:58:02;34.55;;;26.20;;
60038;SDS011;45916;52.734;6.544;2024-03-08T07:00:28;36.92;;;27.15;;
60038;SDS011;45916;52.734;6.544;2024-03-08T07:02:58;38.22;;;28.58;;
60038;SDS011;45916;52.734;6.544;2024-03-08T07:05:29;35.78;;;26.77;;
60038;SDS011;45916;52.734;6.544;2024-03-08T07:07:56;36.80;;;27.35;;
60038;SDS011;45916;52.734;6.544;2024-03-08T07:10:22;36.35;;;27.17;;
60038;SDS011;45916;52.734;6.544;2024-03-08T07:12:51;34.13;;;27.27;;
60038;SDS011;45916;52.734;6.544;2024-03-08T07:15:18;34.47;;;27.05;;
60038;SDS011;45916;52.734;6.544;2024-03-08T07:17:47;37.05;;;26.15;;
60038;SDS011;45916;52.734;6.544;2024-03-08T07:20:13;35.10;;;26.88;;
60038;SDS011;45916;52.734;6.544;2024-03-08T07:22:44;37.25;;;27.77;;
60038;SDS011;45916;52.734;6.544;2024-03-08T07:25:12;32.75;;;24.38;;
60038;SDS011;45916;52.734;6.544;2024-03-08T07:27:49;32.00;;;25.50;;
60038;SDS011;45916;52.734;6.544;2024-03-08T07:30:19;29.08;;;24.17;;
60038;SDS011;45916;52.734;6.544;2024-03-08T07:33:05;32.63;;;25.45;;
60038;SDS011;45916;52.734;6.544;2024-03-08T07:35:32;34.85;;;26.65;;
60038;SDS011;45916;52.734;6.544;2024-03-08T07:37:58;33.10;;;25.45;;
60038;SDS011;45916;52.734;6.544;2024-03-08T07:40:27;32.22;;;26.73;;
60038;SDS011;45916;52.734;6.544;2024-03-08T07:42:53;33.47;;;25.38;;
60038;SDS011;45916;52.734;6.544;2024-03-08T07:45:20;32.05;;;25.38;;
60038;SDS011;45916;52.734;6.544;2024-03-08T07:47:47;34.33;;;27.08;;
60038;SDS011;45916;52.734;6.544;2024-03-08T07:50:13;34.83;;;27.48;;
60038;SDS011;45916;52.734;6.544;2024-03-08T07:52:41;32.85;;;26.23;;
60038;SDS011;45916;52.734;6.544;2024-03-08T07:55:08;33.63;;;25.95;;
60038;SDS011;45916;52.734;6.544;2024-03-08T07:57:35;30.48;;;25.88;;
60038;SDS011;45916;52.734;6.544;2024-03-08T08:00:03;34.45;;;27.60;;
60038;SDS011;45916;52.734;6.544;2024-03-08T08:02:32;34.17;;;25.25;;
60038;SDS011;45916;52.734;6.544;2024-03-08T08:04:59;32.45;;;27.35;;
60038;SDS011;45916;52.734;6.544;2024-03-08T08:07:25;32.95;;;26.27;;
60038;SDS011;45916;52.734;6.544;2024-03-08T08:09:52;31.65;;;25.48;;
60038;SDS011;45916;52.734;6.544;2024-03-08T08:12:18;30.50;;;25.55;;
60038;SDS011;45916;52.734;6.544;2024-03-08T08:14:46;34.85;;;27.92;;
60038;SDS011;45916;52.734;6.544;2024-03-08T08:17:12;31.10;;;25.50;;
60038;SDS011;45916;52.734;6.544;2024-03-08T08:19:40;30.55;;;25.67;;
60038;SDS011;45916;52.734;6.544;2024-03-08T08:24:34;34.00;;;25.40;;
60038;SDS011;45916;52.734;6.544;2024-03-08T08:27:02;33.90;;;26.52;;
60038;SDS011;45916;52.734;6.544;2024-03-08T08:29:28;32.05;;;27.25;;
60038;SDS011;45916;52.734;6.544;2024-03-08T08:31:57;30.58;;;26.48;;
60038;SDS011;45916;52.734;6.544;2024-03-08T08:34:24;34.63;;;28.50;;
60038;SDS011;45916;52.734;6.544;2024-03-08T08:36:51;32.83;;;27.77;;
60038;SDS011;45916;52.734;6.544;2024-03-08T08:39:18;35.13;;;28.63;;
60038;SDS011;45916;52.734;6.544;2024-03-08T08:41:44;30.58;;;26.17;;
60038;SDS011;45916;52.734;6.544;2024-03-08T08:44:10;29.92;;;26.67;;
60038;SDS011;45916;52.734;6.544;2024-03-08T08:46:37;32.55;;;28.15;;
60038;SDS011;45916;52.734;6.544;2024-03-08T08:49:04;35.30;;;26.80;;
60038;SDS011;45916;52.734;6.544;2024-03-08T08:51:31;32.97;;;26.98;;
60038;SDS011;45916;52.734;6.544;2024-03-08T08:53:58;34.27;;;27.93;;
60038;SDS011;45916;52.734;6.544;2024-03-08T08:56:25;32.15;;;25.85;;
60038;SDS011;45916;52.734;6.544;2024-03-08T08:58:51;33.92;;;28.40;;
60038;SDS011;45916;52.734;6.544;2024-03-08T09:01:20;34.22;;;27.30;;
60038;SDS011;45916;52.734;6.544;2024-03-08T09:03:46;35.88;;;28.17;;
60038;SDS011;45916;52.734;6.544;2024-03-08T09:06:13;32.22;;;28.35;;
60038;SDS011;45916;52.734;6.544;2024-03-08T09:08:39;34.42;;;27.85;;
60038;SDS011;45916;52.734;6.544;2024-03-08T09:11:05;32.33;;;28.80;;
60038;SDS011;45916;52.734;6.544;2024-03-08T09:13:32;31.50;;;27.90;;
60038;SDS011;45916;52.734;6.544;2024-03-08T09:15:59;34.38;;;28.55;;
60038;SDS011;45916;52.734;6.544;2024-03-08T09:18:25;30.92;;;27.60;;
60038;SDS011;45916;52.734;6.544;2024-03-08T09:20:51;35.17;;;29.00;;
60038;SDS011;45916;52.734;6.544;2024-03-08T09:23:21;34.97;;;28.15;;
60038;SDS011;45916;52.734;6.544;2024-03-08T09:25:48;32.83;;;27.83;;
60038;SDS011;45916;52.734;6.544;2024-03-08T09:28:14;31.77;;;27.48;;
60038;SDS011;45916;52.734;6.544;2024-03-08T09:30:41;32.90;;;28.77;;
60038;SDS011;45916;52.734;6.544;2024-03-08T09:33:08;31.55;;;27.38;;
60038;SDS011;45916;52.734;6.544;2024-03-08T09:35:34;32.30;;;28.33;;
60038;SDS011;45916;52.734;6.544;2024-03-08T09:38:01;33.63;;;29.02;;
60038;SDS011;45916;52.734;6.544;2024-03-08T09:40:28;32.60;;;28.23;;
60038;SDS011;45916;52.734;6.544;2024-03-08T09:42:54;34.42;;;27.60;;
60038;SDS011;45916;52.734;6.544;2024-03-08T09:45:20;35.92;;;29.02;;
60038;SDS011;45916;52.734;6.544;2024-03-08T09:47:50;31.90;;;27.95;;
60038;SDS011;45916;52.734;6.544;2024-03-08T09:50:16;34.25;;;28.27;;
60038;SDS011;45916;52.734;6.544;2024-03-08T09:52:43;34.47;;;28.85;;
60038;SDS011;45916;52.734;6.544;2024-03-08T09:55:12;32.97;;;27.70;;
60038;SDS011;45916;52.734;6.544;2024-03-08T09:57:38;33.15;;;29.00;;
60038;SDS011;45916;52.734;6.544;2024-03-08T10:00:05;32.50;;;28.02;;
60038;SDS011;45916;52.734;6.544;2024-03-08T10:05:09;32.60;;;28.33;;
60038;SDS011;45916;52.734;6.544;2024-03-08T10:07:35;33.92;;;29.65;;
60038;SDS011;45916;52.734;6.544;2024-03-08T10:10:01;32.63;;;28.10;;
60038;SDS011;45916;52.734;6.544;2024-03-08T10:12:27;31.58;;;26.15;;
60038;SDS011;45916;52.734;6.544;2024-03-08T10:15:00;36.50;;;28.27;;
60038;SDS011;45916;52.734;6.544;2024-03-08T10:17:26;33.25;;;28.17;;
60038;SDS011;45916;52.734;6.544;2024-03-08T10:19:57;32.95;;;27.75;;
60038;SDS011;45916;52.734;6.544;2024-03-08T10:22:25;33.95;;;28.20;;
60038;SDS011;45916;52.734;6.544;2024-03-08T10:24:51;33.13;;;29.13;;
60038;SDS011;45916;52.734;6.544;2024-03-08T10:27:17;32.63;;;27.95;;
60038;SDS011;45916;52.734;6.544;2024-03-08T10:29:47;34.88;;;29.10;;
60038;SDS011;45916;52.734;6.544;2024-03-08T10:32:14;32.50;;;27.88;;
60038;SDS011;45916;52.734;6.544;2024-03-08T10:34:40;32.95;;;27.75;;
60038;SDS011;45916;52.734;6.544;2024-03-08T10:37:07;34.38;;;28.50;;
60038;SDS011;45916;52.734;6.544;2024-03-08T10:39:36;35.63;;;29.63;;
60038;SDS011;45916;52.734;6.544;2024-03-08T10:42:04;34.20;;;29.50;;
60038;SDS011;45916;52.734;6.544;2024-03-08T10:44:44;33.50;;;28.75;;
60038;SDS011;45916;52.734;6.544;2024-03-08T10:47:26;34.85;;;27.90;;
60038;SDS011;45916;52.734;6.544;2024-03-08T10:52:38;32.47;;;28.55;;
60038;SDS011;45916;52.734;6.544;2024-03-08T10:55:05;34.05;;;30.40;;
60038;SDS011;45916;52.734;6.544;2024-03-08T10:57:37;34.17;;;28.70;;
60038;SDS011;45916;52.734;6.544;2024-03-08T11:00:05;35.00;;;29.33;;
60038;SDS011;45916;52.734;6.544;2024-03-08T11:02:35;36.72;;;28.90;;
60038;SDS011;45916;52.734;6.544;2024-03-08T11:05:03;33.15;;;29.45;;
60038;SDS011;45916;52.734;6.544;2024-03-08T11:07:33;35.03;;;29.63;;
60038;SDS011;45916;52.734;6.544;2024-03-08T11:10:03;32.20;;;27.65;;
60038;SDS011;45916;52.734;6.544;2024-03-08T11:12:38;31.85;;;27.83;;
60038;SDS011;45916;52.734;6.544;2024-03-08T11:15:11;35.40;;;30.52;;
60038;SDS011;45916;52.734;6.544;2024-03-08T11:17:47;34.53;;;28.75;;
60038;SDS011;45916;52.734;6.544;2024-03-08T11:20:14;36.17;;;29.75;;
60038;SDS011;45916;52.734;6.544;2024-03-08T11:22:55;34.17;;;30.42;;
60038;SDS011;45916;52.734;6.544;2024-03-08T11:25:40;34.13;;;28.85;;
60038;SDS011;45916;52.734;6.544;2024-03-08T11:31:27;35.13;;;30.05;;
60038;SDS011;45916;52.734;6.544;2024-03-08T11:33:29;35.50;;;28.65;;
60038;SDS011;45916;52.734;6.544;2024-03-08T11:36:09;35.13;;;29.58;;
60038;SDS011;45916;52.734;6.544;2024-03-08T11:38:45;34.05;;;29.05;;
60038;SDS011;45916;52.734;6.544;2024-03-08T11:41:15;39.25;;;29.85;;
60038;SDS011;45916;52.734;6.544;2024-03-08T11:43:41;36.33;;;28.83;;
60038;SDS011;45916;52.734;6.544;2024-03-08T11:46:07;37.25;;;29.40;;
60038;SDS011;45916;52.734;6.544;2024-03-08T11:48:34;36.55;;;31.08;;
60038;SDS011;45916;52.734;6.544;2024-03-08T11:51:04;32.75;;;29.17;;
60038;SDS011;45916;52.734;6.544;2024-03-08T11:53:30;36.35;;;30.65;;
60038;SDS011;45916;52.734;6.544;2024-03-08T11:56:07;37.10;;;29.23;;
60038;SDS011;45916;52.734;6.544;2024-03-08T11:58:33;35.65;;;29.75;;
60038;SDS011;45916;52.734;6.544;2024-03-08T12:01:05;38.65;;;27.98;;
60038;SDS011;45916;52.734;6.544;2024-03-08T12:03:32;36.30;;;29.52;;
60038;SDS011;45916;52.734;6.544;2024-03-08T12:05:59;38.15;;;29.20;;
60038;SDS011;45916;52.734;6.544;2024-03-08T12:08:25;37.53;;;29.27;;
60038;SDS011;45916;52.734;6.544;2024-03-08T12:10:53;35.65;;;29.38;;
60038;SDS011;45916;52.734;6.544;2024-03-08T12:13:28;34.42;;;29.35;;
60038;SDS011;45916;52.734;6.544;2024-03-08T12:15:58;34.28;;;27.58;;
60038;SDS011;45916;52.734;6.544;2024-03-08T12:18:27;34.90;;;27.48;;
60038;SDS011;45916;52.734;6.544;2024-03-08T12:21:06;35.65;;;28.00;;
60038;SDS011;45916;52.734;6.544;2024-03-08T12:23:33;38.35;;;29.77;;
60038;SDS011;45916;52.734;6.544;2024-03-08T12:26:10;36.95;;;29.65;;
60038;SDS011;45916;52.734;6.544;2024-03-08T12:28:38;34.95;;;28.45;;
60038;SDS011;45916;52.734;6.544;2024-03-08T12:31:06;37.20;;;29.10;;
60038;SDS011;45916;52.734;6.544;2024-03-08T12:33:51;32.92;;;26.15;;
60038;SDS011;45916;52.734;6.544;2024-03-08T12:36:18;34.10;;;29.17;;
60038;SDS011;45916;52.734;6.544;2024-03-08T12:38:48;34.00;;;29.00;;
60038;SDS011;45916;52.734;6.544;2024-03-08T12:41:14;31.15;;;26.58;;
60038;SDS011;45916;52.734;6.544;2024-03-08T12:43:42;33.42;;;27.27;;
60038;SDS011;45916;52.734;6.544;2024-03-08T12:46:17;33.63;;;26.48;;
60038;SDS011;45916;52.734;6.544;2024-03-08T12:48:45;32.72;;;25.92;;
60038;SDS011;45916;52.734;6.544;2024-03-08T12:51:14;34.42;;;28.20;;
60038;SDS011;45916;52.734;6.544;2024-03-08T12:53:41;34.28;;;27.45;;
60038;SDS011;45916;52.734;6.544;2024-03-08T12:58:36;30.90;;;25.65;;
60038;SDS011;45916;52.734;6.544;2024-03-08T13:01:03;30.30;;;24.87;;
60038;SDS011;45916;52.734;6.544;2024-03-08T13:03:36;28.88;;;23.83;;
60038;SDS011;45916;52.734;6.544;2024-03-08T13:06:05;31.70;;;24.45;;
60038;SDS011;45916;52.734;6.544;2024-03-08T13:08:35;31.73;;;25.67;;
60038;SDS011;45916;52.734;6.544;2024-03-08T13:11:04;32.35;;;26.15;;
60038;SDS011;45916;52.734;6.544;2024-03-08T13:13:30;32.78;;;26.30;;
60038;SDS011;45916;52.734;6.544;2024-03-08T13:15:58;34.67;;;26.35;;
60038;SDS011;45916;52.734;6.544;2024-03-08T13:18:26;33.47;;;27.60;;
60038;SDS011;45916;52.734;6.544;2024-03-08T13:20:53;31.08;;;26.48;;
60038;SDS011;45916;52.734;6.544;2024-03-08T13:23:19;28.10;;;24.38;;
60038;SDS011;45916;52.734;6.544;2024-03-08T13:25:46;31.85;;;25.83;;
60038;SDS011;45916;52.734;6.544;2024-03-08T13:28:16;35.90;;;27.15;;
60038;SDS011;45916;52.734;6.544;2024-03-08T13:30:48;33.17;;;27.00;;
60038;SDS011;45916;52.734;6.544;2024-03-08T13:33:14;33.35;;;26.48;;
60038;SDS011;45916;52.734;6.544;2024-03-08T13:35:40;32.30;;;25.75;;
60038;SDS011;45916;52.734;6.544;2024-03-08T13:38:06;32.42;;;24.23;;
60038;SDS011;45916;52.734;6.544;2024-03-08T13:40:34;32.05;;;26.48;;
60038;SDS011;45916;52.734;6.544;2024-03-08T13:43:00;32.55;;;26.77;;
60038;SDS011;45916;52.734;6.544;2024-03-08T13:45:26;30.83;;;27.30;;
60038;SDS011;45916;52.734;6.544;2024-03-08T13:47:53;29.48;;;25.52;;
60038;SDS011;45916;52.734;6.544;2024-03-08T13:50:19;31.95;;;26.98;;
60038;SDS011;45916;52.734;6.544;2024-03-08T13:52:51;34.08;;;28.02;;
60038;SDS011;45916;52.734;6.544;2024-03-08T13:55:19;35.22;;;26.52;;
60038;SDS011;45916;52.734;6.544;2024-03-08T13:57:45;33.05;;;27.70;;
60038;SDS011;45916;52.734;6.544;2024-03-08T14:00:12;32.25;;;26.33;;
60038;SDS011;45916;52.734;6.544;2024-03-08T14:02:39;31.30;;;26.15;;
60038;SDS011;45916;52.734;6.544;2024-03-08T14:05:06;33.42;;;27.48;;
60038;SDS011;45916;52.734;6.544;2024-03-08T14:07:34;34.50;;;26.73;;
60038;SDS011;45916;52.734;6.544;2024-03-08T14:10:00;31.25;;;25.85;;
60038;SDS011;45916;52.734;6.544;2024-03-08T14:12:26;32.85;;;26.15;;
60038;SDS011;45916;52.734;6.544;2024-03-08T14:14:53;30.83;;;26.35;;
60038;SDS011;45916;52.734;6.544;2024-03-08T14:17:19;30.48;;;26.98;;
60038;SDS011;45916;52.734;6.544;2024-03-08T14:19:45;32.00;;;25.20;;
60038;SDS011;45916;52.734;6.544;2024-03-08T14:22:11;32.92;;;26.33;;
60038;SDS011;45916;52.734;6.544;2024-03-08T14:24:42;28.42;;;24.75;;
60038;SDS011;45916;52.734;6.544;2024-03-08T14:27:09;31.17;;;25.25;;
60038;SDS011;45916;52.734;6.544;2024-03-08T14:29:37;32.20;;;25.27;;
60038;SDS011;45916;52.734;6.544;2024-03-08T14:32:07;30.73;;;25.33;;
60038;SDS011;45916;52.734;6.544;2024-03-08T14:34:33;30.98;;;25.13;;
60038;SDS011;45916;52.734;6.544;2024-03-08T14:37:00;29.30;;;25.08;;
60038;SDS011;45916;52.734;6.544;2024-03-08T14:39:30;28.75;;;23.08;;